Time;durP1;ratioP1;P1;durP2;ratioP2;P2;SDS_P1;SDS_P2;PMS_P1;PMS_P2;Temp;Humidity;BMP_temperature;BMP_pressure;BME280_temperature;BME280_humidity;BME280_pressure;Samples;Min_cycle;Max_cycle;Signal;HPM_P1;HPM_P2
2022/10/10 00:00:31;;;;;;;7.40;3.57;;;8.20;99.90;;;;;;6183449;23;20071;-69
2022/10/10 00:02:57;;;;;;;7.13;3.67;;;8.20;99.90;;;;;;6183398;23;20008;-69
2022/10/10 00:05:23;;;;;;;4.30;3.60;;;8.20;99.90;;;;;;6183386;23;20378;-69
2022/10/10 00:07:48;;;;;;;6.10;3.77;;;8.20;99.90;;;;;;6182907;23;20012;-69
2022/10/10 00:10:14;;;;;;;5.33;3.97;;;8.10;99.90;;;;;;6183347;23;20087;-69
2022/10/10 00:12:39;;;;;;;6.77;4.83;;;8.30;99.90;;;;;;6183279;23;20008;-69
2022/10/10 00:15:05;;;;;;;5.77;3.40;;;8.10;99.90;;;;;;6183706;23;20008;-69
2022/10/10 00:17:31;;;;;;;6.50;4.20;;;8.10;99.90;;;;;;6183486;23;20423;-69
2022/10/10 00:19:56;;;;;;;6.23;4.67;;;8.00;99.90;;;;;;6181306;23;20024;-69
2022/10/10 00:22:22;;;;;;;4.47;3.30;;;8.00;99.90;;;;;;6182597;23;20051;-69
2022/10/10 00:24:47;;;;;;;7.10;3.50;;;8.00;99.90;;;;;;6183284;23;20491;-69
2022/10/10 00:27:13;;;;;;;6.53;3.80;;;8.00;99.90;;;;;;6183246;23;20076;-69
2022/10/10 00:29:38;;;;;;;7.07;3.53;;;8.00;99.90;;;;;;6183354;23;20292;-69
2022/10/10 00:32:04;;;;;;;6.07;3.53;;;8.10;99.90;;;;;;6183560;23;20309;-69
2022/10/10 00:34:29;;;;;;;5.63;3.60;;;8.00;99.90;;;;;;6183029;23;20037;-69
2022/10/10 00:36:55;;;;;;;6.57;3.93;;;7.70;99.90;;;;;;6182369;23;20055;-70
2022/10/10 00:39:20;;;;;;;5.00;3.77;;;8.00;99.90;;;;;;6183102;23;20025;-69
2022/10/10 00:41:46;;;;;;;5.67;3.67;;;7.90;99.90;;;;;;6183093;23;20059;-69
2022/10/10 00:44:13;;;;;;;4.53;3.30;;;7.90;99.90;;;;;;6183098;23;20012;-69
2022/10/10 00:46:39;;;;;;;5.13;3.70;;;8.00;99.90;;;;;;6182946;23;20068;-69
2022/10/10 00:49:18;;;;;;;6.00;5.00;;;8.10;99.90;;;;;;6183295;23;20005;-69
2022/10/10 00:51:46;;;;;;;6.27;4.37;;;7.90;99.90;;;;;;6182520;23;20441;-69
2022/10/10 00:54:13;;;;;;;5.33;3.73;;;7.90;99.90;;;;;;6183076;23;20005;-70
2022/10/10 00:56:53;;;;;;;7.93;4.73;;;8.00;99.90;;;;;;6182882;23;20005;-70
2022/10/10 00:59:19;;;;;;;6.77;4.07;;;7.80;99.90;;;;;;6183123;23;20008;-69
2022/10/10 01:01:46;;;;;;;6.10;3.83;;;7.80;99.90;;;;;;6182944;23;19997;-70
2022/10/10 01:04:37;;;;;;;6.53;3.93;;;7.80;99.90;;;;;;6183166;23;20005;-70
2022/10/10 01:07:25;;;;;;;7.60;4.53;;;7.80;99.90;;;;;;6183039;23;20382;-69
2022/10/10 01:09:53;;;;;;;7.23;4.20;;;7.80;99.90;;;;;;6182832;23;20084;-69
2022/10/10 01:12:43;;;;;;;5.37;4.43;;;7.70;99.90;;;;;;6182934;23;20070;-70
2022/10/10 01:15:21;;;;;;;6.27;4.20;;;7.70;99.90;;;;;;6183033;23;20005;-70
2022/10/10 01:17:52;;;;;;;4.60;3.93;;;7.60;99.90;;;;;;6182891;23;20009;-70
2022/10/10 01:20:43;;;;;;;6.47;4.43;;;7.60;99.90;;;;;;6182084;23;20143;-70
2022/10/10 01:23:27;;;;;;;7.37;4.27;;;7.50;99.90;;;;;;6062668;23;20437;-70
2022/10/10 01:25:55;;;;;;;4.87;3.83;;;7.60;99.90;;;;;;6062544;23;20014;-70
2022/10/10 01:28:44;;;;;;;5.27;4.30;;;7.60;99.90;;;;;;6062766;23;20007;-70
2022/10/10 01:31:14;;;;;;;6.43;4.67;;;7.40;99.90;;;;;;6062534;23;20017;-70
2022/10/10 01:33:49;;;;;;;6.27;4.17;;;7.40;99.90;;;;;;6062419;23;20011;-70
2022/10/10 01:36:25;;;;;;;7.33;4.23;;;7.50;99.90;;;;;;6062598;23;20441;-70
2022/10/10 01:38:59;;;;;;;11.23;5.43;;;7.50;99.90;;;;;;6062515;23;20010;-69
2022/10/10 01:41:41;;;;;;;10.40;4.47;;;7.30;99.90;;;;;;6062629;23;20003;-69
2022/10/10 01:44:07;;;;;;;6.57;4.03;;;7.40;99.90;;;;;;6062563;23;20011;-70
2022/10/10 01:46:32;;;;;;;10.87;4.43;;;7.40;99.90;;;;;;6062653;23;20517;-70
2022/10/10 01:48:59;;;;;;;8.20;4.50;;;8.50;99.90;;;;;;6037936;23;20049;-70
2022/10/10 01:51:30;;;;;;;7.10;5.10;;;7.40;99.90;;;;;;6062564;23;20456;-69
2022/10/10 01:54:16;;;;;;;12.60;4.97;;;7.30;99.90;;;;;;6062357;23;20073;-69
2022/10/10 01:56:56;;;;;;;7.87;4.63;;;7.30;99.90;;;;;;6062454;23;20041;-69
2022/10/10 01:59:36;;;;;;;7.73;4.50;;;7.40;99.90;;;;;;6083316;23;20069;-69
2022/10/10 02:02:20;;;;;;;6.07;4.77;;;7.30;99.90;;;;;;6181952;23;20012;-69
2022/10/10 02:05:08;;;;;;;6.83;4.80;;;7.30;99.90;;;;;;6182134;23;20005;-68
2022/10/10 02:07:54;;;;;;;10.57;5.47;;;7.20;99.90;;;;;;6180562;23;20109;-69
2022/10/10 02:10:23;;;;;;;6.93;5.13;;;7.30;99.90;;;;;;6181153;23;20005;-69
2022/10/10 02:12:50;;;;;;;5.07;4.60;;;7.30;99.90;;;;;;6180618;23;20345;-69
2022/10/10 02:15:20;;;;;;;8.07;5.00;;;7.30;99.90;;;;;;6181811;23;20005;-69
2022/10/10 02:17:48;;;;;;;5.83;4.53;;;7.30;99.90;;;;;;6181897;23;20008;-68
2022/10/10 02:20:17;;;;;;;8.87;4.87;;;7.30;99.90;;;;;;6182066;23;20327;-69
2022/10/10 02:22:44;;;;;;;6.20;4.87;;;7.30;99.90;;;;;;6182265;23;20076;-69
2022/10/10 02:25:11;;;;;;;5.80;5.20;;;7.30;99.90;;;;;;6182224;23;20005;-69
2022/10/10 02:28:02;;;;;;;6.27;4.90;;;7.30;99.90;;;;;;6181985;23;20080;-69
2022/10/10 02:30:28;;;;;;;11.70;5.27;;;7.30;99.90;;;;;;6161307;23;20088;-69
2022/10/10 02:32:59;;;;;;;8.00;5.30;;;7.30;99.90;;;;;;6181607;23;20094;-69
2022/10/10 02:35:30;;;;;;;7.33;5.00;;;7.20;99.90;;;;;;6181950;23;20053;-69
2022/10/10 02:37:59;;;;;;;8.10;5.10;;;7.30;99.90;;;;;;6182025;23;20894;-69
2022/10/10 02:40:29;;;;;;;6.63;5.03;;;7.20;99.90;;;;;;6182196;23;20001;-70
2022/10/10 02:42:58;;;;;;;8.17;5.57;;;7.10;99.90;;;;;;6181889;23;20002;-69
2022/10/10 02:45:24;;;;;;;9.10;5.03;;;7.10;99.90;;;;;;6182123;23;20035;-69
2022/10/10 02:47:50;;;;;;;7.17;4.83;;;7.20;99.90;;;;;;6181649;23;20016;-69
2022/10/10 02:50:16;;;;;;;6.37;4.73;;;7.20;99.90;;;;;;6181973;23;20016;-69
2022/10/10 02:52:42;;;;;;;6.60;4.87;;;7.10;99.90;;;;;;6181987;23;20032;-69
2022/10/10 02:55:07;;;;;;;9.47;5.40;;;7.10;99.90;;;;;;6181878;23;20028;-70
2022/10/10 02:57:33;;;;;;;5.93;4.87;;;7.10;99.90;;;;;;6182272;23;20001;-71
2022/10/10 02:59:59;;;;;;;10.60;4.93;;;7.20;99.90;;;;;;6181425;23;20386;-70
2022/10/10 03:02:24;;;;;;;6.77;5.00;;;7.00;99.90;;;;;;6181413;23;20016;-69
2022/10/10 03:04:50;;;;;;;8.27;5.00;;;7.10;99.90;;;;;;6181737;23;20001;-69
2022/10/10 03:07:15;;;;;;;15.53;5.57;;;6.80;99.90;;;;;;6181751;23;20005;-69
2022/10/10 03:09:41;;;;;;;7.50;5.13;;;7.10;99.90;;;;;;6181922;23;20005;-69
2022/10/10 03:12:06;;;;;;;9.60;5.37;;;7.00;99.90;;;;;;6181914;23;20005;-69
2022/10/10 03:14:32;;;;;;;6.57;4.90;;;7.00;99.90;;;;;;6182294;23;20005;-69
2022/10/10 03:16:57;;;;;;;8.37;4.73;;;7.00;99.90;;;;;;6181196;23;20005;-69
2022/10/10 03:19:23;;;;;;;7.20;5.27;;;7.00;99.90;;;;;;6182095;23;20082;-69
2022/10/10 03:21:49;;;;;;;8.20;5.43;;;7.00;99.90;;;;;;6182266;23;20080;-69
2022/10/10 03:24:14;;;;;;;7.50;5.20;;;6.90;99.90;;;;;;6181988;23;19997;-69
2022/10/10 03:26:40;;;;;;;12.83;6.67;;;6.80;99.90;;;;;;6181907;23;20033;-69
2022/10/10 03:29:06;;;;;;;8.80;4.87;;;6.90;99.90;;;;;;6181915;23;20001;-69
2022/10/10 03:31:31;;;;;;;11.13;4.90;;;6.70;99.90;;;;;;6181492;23;20005;-69
2022/10/10 03:33:57;;;;;;;6.40;5.20;;;7.00;99.90;;;;;;6181478;23;20076;-69
2022/10/10 03:36:23;;;;;;;7.87;5.57;;;7.10;99.90;;;;;;6182250;23;20005;-69
2022/10/10 03:38:48;;;;;;;10.57;5.77;;;6.90;99.90;;;;;;6182008;23;20035;-69
2022/10/10 03:41:14;;;;;;;8.17;4.90;;;7.00;99.90;;;;;;6181350;23;20001;-69
2022/10/10 03:43:39;;;;;;;11.00;6.33;;;6.80;99.90;;;;;;6181397;23;20037;-69
2022/10/10 03:46:05;;;;;;;8.63;4.97;;;7.00;99.90;;;;;;6181208;23;20001;-69
2022/10/10 03:48:31;;;;;;;11.27;6.43;;;7.00;99.90;;;;;;6181545;23;20055;-69
2022/10/10 03:50:56;;;;;;;9.53;5.70;;;7.00;99.90;;;;;;6181104;23;20013;-69
2022/10/10 03:53:22;;;;;;;7.90;5.93;;;7.00;99.90;;;;;;6181504;23;20080;-69
2022/10/10 03:55:47;;;;;;;11.10;5.63;;;6.90;99.90;;;;;;6181765;23;20073;-69
2022/10/10 03:58:13;;;;;;;6.97;6.17;;;7.00;99.90;;;;;;6181511;23;20015;-69
2022/10/10 04:00:39;;;;;;;9.20;6.07;;;6.90;99.90;;;;;;6181049;23;20137;-69
2022/10/10 04:03:05;;;;;;;9.43;5.77;;;7.00;99.90;;;;;;6181953;23;20001;-68
2022/10/10 04:05:38;;;;;;;8.63;5.60;;;7.00;99.90;;;;;;6182075;23;20008;-70
2022/10/10 04:08:04;;;;;;;8.03;5.43;;;6.90;99.90;;;;;;6180566;23;20059;-68
2022/10/10 04:10:30;;;;;;;11.53;6.63;;;6.80;99.90;;;;;;6180978;23;20005;-69
2022/10/10 04:12:57;;;;;;;7.27;5.90;;;6.70;99.90;;;;;;6180563;23;20064;-69
2022/10/10 04:15:24;;;;;;;12.67;6.67;;;6.80;99.90;;;;;;6183047;23;20008;-68
2022/10/10 04:17:50;;;;;;;9.30;6.03;;;6.80;99.90;;;;;;6183061;23;20005;-69
2022/10/10 04:20:16;;;;;;;9.00;5.80;;;6.70;99.90;;;;;;6182592;23;20059;-69
2022/10/10 04:22:43;;;;;;;8.90;5.50;;;6.80;99.90;;;;;;6183049;23;19997;-69
2022/10/10 04:25:09;;;;;;;9.07;6.43;;;6.70;99.90;;;;;;6183547;23;20358;-69
2022/10/10 04:27:35;;;;;;;7.07;5.60;;;6.80;99.90;;;;;;6182596;23;20012;-70
2022/10/10 04:30:01;;;;;;;9.27;6.30;;;6.70;99.90;;;;;;6182984;23;20005;-69
2022/10/10 04:32:26;;;;;;;8.77;5.67;;;6.80;99.90;;;;;;6183221;23;20004;-69
2022/10/10 04:34:52;;;;;;;10.30;6.40;;;6.70;99.90;;;;;;6183034;23;20013;-69
2022/10/10 04:37:17;;;;;;;9.93;6.53;;;6.70;99.90;;;;;;6183038;23;20008;-69
2022/10/10 04:39:43;;;;;;;8.20;5.67;;;6.70;99.90;;;;;;6183083;23;20078;-69
2022/10/10 04:42:08;;;;;;;6.80;5.37;;;6.50;99.90;;;;;;6182420;23;20023;-69
2022/10/10 04:44:34;;;;;;;8.70;6.20;;;6.80;99.90;;;;;;6183372;23;19997;-69
2022/10/10 04:46:59;;;;;;;10.60;5.83;;;6.50;99.90;;;;;;6181422;23;20447;-69
2022/10/10 04:49:25;;;;;;;6.13;4.60;;;6.40;99.90;;;;;;6183124;23;20001;-69
2022/10/10 04:51:50;;;;;;;7.43;5.60;;;6.10;99.90;;;;;;6182872;23;20008;-69
2022/10/10 04:54:16;;;;;;;9.40;6.37;;;6.50;99.90;;;;;;6182974;23;20004;-69
2022/10/10 04:56:41;;;;;;;9.50;6.33;;;6.50;99.90;;;;;;6182431;23;20009;-69
2022/10/10 04:59:08;;;;;;;9.30;6.60;;;6.40;99.90;;;;;;6183003;23;20032;-70
2022/10/10 05:01:34;;;;;;;7.73;5.53;;;6.20;99.90;;;;;;6182998;23;19997;-69
2022/10/10 05:03:59;;;;;;;8.00;6.20;;;6.40;99.90;;;;;;6182648;23;20374;-69
2022/10/10 05:06:25;;;;;;;10.43;6.10;;;6.50;99.90;;;;;;6181189;23;20374;-69
2022/10/10 05:08:50;;;;;;;10.97;7.00;;;6.40;99.90;;;;;;6180945;23;20009;-69
2022/10/10 05:11:16;;;;;;;8.40;6.47;;;6.20;99.90;;;;;;6182213;23;20131;-69
2022/10/10 05:13:41;;;;;;;11.43;6.83;;;6.30;99.90;;;;;;6183103;23;20001;-70
2022/10/10 05:16:07;;;;;;;10.27;6.67;;;6.40;99.90;;;;;;6182843;23;20027;-69
2022/10/10 05:18:36;;;;;;;10.00;6.67;;;6.30;99.90;;;;;;6182763;23;19997;-70
2022/10/10 05:21:01;;;;;;;9.30;6.77;;;6.20;99.90;;;;;;6182840;23;20004;-69
2022/10/10 05:23:27;;;;;;;12.03;7.43;;;6.20;99.90;;;;;;6182422;23;19997;-69
2022/10/10 05:25:52;;;;;;;10.60;7.27;;;6.20;99.90;;;;;;6182099;23;20339;-69
2022/10/10 05:28:18;;;;;;;11.07;7.60;;;6.20;99.90;;;;;;6182953;23;20382;-71
2022/10/10 05:30:44;;;;;;;13.03;7.13;;;6.10;99.90;;;;;;6182699;23;20007;-69
2022/10/10 05:33:09;;;;;;;12.37;7.20;;;6.20;99.90;;;;;;6182737;23;20015;-69
2022/10/10 05:35:35;;;;;;;11.93;7.33;;;6.20;99.90;;;;;;6182686;23;20506;-69
2022/10/10 05:38:01;;;;;;;8.80;7.60;;;6.10;99.90;;;;;;6182273;23;20382;-70
2022/10/10 05:40:27;;;;;;;8.90;6.67;;;5.70;99.90;;;;;;6182432;23;20323;-69
2022/10/10 05:42:52;;;;;;;11.13;6.47;;;6.00;99.90;;;;;;6182371;23;20001;-69
2022/10/10 05:45:18;;;;;;;9.83;6.70;;;6.10;99.90;;;;;;6182500;23;20076;-72
2022/10/10 05:47:43;;;;;;;10.47;7.17;;;6.10;99.90;;;;;;6182456;23;20362;-69
2022/10/10 05:50:24;;;;;;;12.83;7.20;;;6.10;99.90;;;;;;6182273;23;20016;-69
2022/10/10 05:52:49;;;;;;;10.03;7.23;;;6.20;99.90;;;;;;6182373;23;20055;-69
2022/10/10 05:55:15;;;;;;;11.90;7.00;;;6.00;99.90;;;;;;6182064;23;20005;-69
2022/10/10 05:57:40;;;;;;;13.60;7.10;;;6.10;99.90;;;;;;6182374;23;20423;-69
2022/10/10 06:00:06;;;;;;;15.60;8.47;;;6.00;99.90;;;;;;6182446;23;20044;-69
2022/10/10 06:02:32;;;;;;;12.30;7.57;;;6.10;99.90;;;;;;6182389;23;20538;-69
2022/10/10 06:04:58;;;;;;;17.77;8.27;;;6.10;99.90;;;;;;6182292;23;20024;-67
2022/10/10 06:07:23;;;;;;;17.80;8.20;;;5.90;99.90;;;;;;6182336;23;20037;-71
2022/10/10 06:09:49;;;;;;;12.43;8.03;;;6.10;99.90;;;;;;6181815;23;20005;-73
2022/10/10 06:12:14;;;;;;;16.10;8.97;;;6.00;99.90;;;;;;6182459;23;20076;-73
2022/10/10 06:14:40;;;;;;;13.07;8.10;;;6.20;99.90;;;;;;6183383;23;20061;-73
2022/10/10 06:17:06;;;;;;;19.20;8.60;;;6.00;99.90;;;;;;6183782;23;20028;-73
2022/10/10 06:19:31;;;;;;;13.03;9.00;;;6.00;99.90;;;;;;6182276;23;20434;-71
2022/10/10 06:21:57;;;;;;;14.77;9.10;;;6.20;99.90;;;;;;6182271;23;19997;-71
2022/10/10 06:24:22;;;;;;;12.47;8.23;;;6.20;99.90;;;;;;6181942;23;20001;-72
2022/10/10 06:26:48;;;;;;;11.90;8.00;;;;;;;;;;6182163;23;20116;-71
2022/10/10 06:29:14;;;;;;;14.40;9.03;;;6.20;99.90;;;;;;6181879;23;20052;-71
2022/10/10 06:31:40;;;;;;;14.80;7.83;;;6.30;99.90;;;;;;6182145;23;20009;-72
2022/10/10 06:34:06;;;;;;;11.20;8.47;;;6.30;99.90;;;;;;6181961;23;20072;-72
2022/10/10 06:36:32;;;;;;;14.60;8.87;;;6.40;99.90;;;;;;6181869;23;20001;-71
2022/10/10 06:38:58;;;;;;;21.83;9.87;;;6.40;99.90;;;;;;6181439;23;20312;-71
2022/10/10 06:41:23;;;;;;;17.53;10.13;;;6.30;99.90;;;;;;6180437;23;20012;-71
2022/10/10 06:43:50;;;;;;;16.47;9.17;;;6.40;99.90;;;;;;6181949;23;20033;-72
2022/10/10 06:46:16;;;;;;;15.17;10.20;;;6.50;99.90;;;;;;6182210;23;20040;-72
2022/10/10 06:48:42;;;;;;;15.07;9.80;;;6.70;99.90;;;;;;6182035;23;20353;-72
2022/10/10 06:51:13;;;;;;;11.47;8.40;;;6.60;99.90;;;;;;6182196;23;20005;-71
2022/10/10 06:53:38;;;;;;;16.60;8.80;;;6.80;99.90;;;;;;6181516;23;20068;-72
2022/10/10 06:56:04;;;;;;;11.77;9.33;;;6.80;99.90;;;;;;6182078;23;20024;-71
2022/10/10 06:58:30;;;;;;;15.27;9.10;;;6.70;99.90;;;;;;6181945;23;20015;-72
2022/10/10 07:00:59;;;;;;;12.93;10.27;;;7.00;99.90;;;;;;6181747;23;20387;-71
2022/10/10 07:03:27;;;;;;;13.67;9.70;;;6.80;99.90;;;;;;6181902;23;20001;-71
2022/10/10 07:05:58;;;;;;;18.70;9.43;;;6.90;99.90;;;;;;6181513;23;20031;-72
2022/10/10 07:08:23;;;;;;;16.07;10.30;;;7.00;99.90;;;;;;6175991;23;20454;-72
2022/10/10 07:10:50;;;;;;;15.80;10.53;;;7.00;99.90;;;;;;6181816;23;20001;-72
2022/10/10 07:13:16;;;;;;;20.03;10.90;;;7.20;99.90;;;;;;6181374;23;20471;-71
2022/10/10 07:15:42;;;;;;;13.67;10.47;;;7.30;99.90;;;;;;6181266;23;20017;-71
2022/10/10 07:18:07;;;;;;;23.73;12.20;;;7.30;99.90;;;;;;6178641;23;20544;-72
2022/10/10 07:20:34;;;;;;;18.83;11.77;;;7.40;99.90;;;;;;6181442;23;20001;-72
2022/10/10 07:23:00;;;;;;;18.30;11.47;;;7.70;99.90;;;;;;6180723;23;20080;-72
2022/10/10 07:25:26;;;;;;;15.10;11.10;;;7.80;99.90;;;;;;6180419;23;20059;-72
2022/10/10 07:27:52;;;;;;;14.87;11.10;;;7.80;99.90;;;;;;6178625;23;20005;-71
2022/10/10 07:30:17;;;;;;;18.93;12.60;;;7.90;99.90;;;;;;6178987;23;20076;-72
2022/10/10 07:32:43;;;;;;;17.00;11.60;;;8.20;99.90;;;;;;6180656;23;20362;-71
2022/10/10 07:35:10;;;;;;;14.93;11.67;;;8.40;99.90;;;;;;6180930;23;20005;-72
2022/10/10 07:37:36;;;;;;;14.47;11.40;;;8.40;99.90;;;;;;6181039;23;20400;-71
2022/10/10 07:40:02;;;;;;;16.80;12.03;;;8.40;99.90;;;;;;6178760;23;20006;-72
2022/10/10 07:42:27;;;;;;;17.23;12.80;;;8.40;99.90;;;;;;6181416;23;20327;-72
2022/10/10 07:44:53;;;;;;;17.53;13.63;;;8.60;99.90;;;;;;6180959;23;20085;-72
2022/10/10 07:47:18;;;;;;;17.30;11.60;;;8.70;99.90;;;;;;6181157;23;20407;-71
2022/10/10 07:49:44;;;;;;;16.93;12.33;;;8.80;99.90;;;;;;6180211;23;20015;-72
2022/10/10 07:52:09;;;;;;;16.20;12.13;;;8.90;99.90;;;;;;6181154;23;20076;-72
2022/10/10 07:54:35;;;;;;;18.10;12.97;;;9.00;99.90;;;;;;6183403;23;20076;-71
2022/10/10 07:57:00;;;;;;;18.43;12.37;;;9.00;99.90;;;;;;6183159;23;20005;-72
2022/10/10 07:59:26;;;;;;;15.53;10.97;;;9.10;99.90;;;;;;6181999;23;20017;-72
2022/10/10 08:01:52;;;;;;;15.37;11.23;;;9.20;99.90;;;;;;6181055;23;20001;-72
2022/10/10 08:04:18;;;;;;;17.23;13.17;;;9.30;99.90;;;;;;6182801;23;20008;-72
2022/10/10 08:06:43;;;;;;;16.63;12.07;;;9.50;99.90;;;;;;6182490;23;20009;-71
2022/10/10 08:09:09;;;;;;;15.80;12.30;;;9.70;99.90;;;;;;6181897;23;20008;-72
2022/10/10 08:11:35;;;;;;;14.43;10.43;;;9.70;99.90;;;;;;6183511;23;20005;-72
2022/10/10 08:14:00;;;;;;;17.60;11.90;;;9.90;99.90;;;;;;6181604;23;20012;-72
2022/10/10 08:16:26;;;;;;;13.80;10.10;;;9.90;99.90;;;;;;6183456;23;20005;-72
2022/10/10 08:18:52;;;;;;;14.47;11.90;;;10.10;99.90;;;;;;6180086;23;20009;-72
2022/10/10 08:21:18;;;;;;;11.77;10.30;;;10.20;99.90;;;;;;6182334;23;20008;-72
2022/10/10 08:23:43;;;;;;;13.60;10.83;;;10.30;99.90;;;;;;6181789;23;20009;-71
2022/10/10 08:26:11;;;;;;;19.33;10.90;;;10.40;99.90;;;;;;6180656;23;20367;-72
2022/10/10 08:28:38;;;;;;;13.47;10.80;;;10.30;99.90;;;;;;6181631;23;20048;-72
2022/10/10 08:31:16;;;;;;;16.40;10.43;;;10.40;99.90;;;;;;6183347;23;20001;-72
2022/10/10 08:33:44;;;;;;;12.47;10.43;;;10.50;99.90;;;;;;6183059;23;20485;-72
2022/10/10 08:36:12;;;;;;;17.20;11.40;;;10.40;99.90;;;;;;6180729;23;20017;-71
2022/10/10 08:38:38;;;;;;;15.93;10.47;;;10.50;99.90;;;;;;6181664;23;20060;-72
2022/10/10 08:41:26;;;;;;;16.67;10.20;;;10.50;99.90;;;;;;6183232;23;20076;-72
2022/10/10 08:44:04;;;;;;;15.13;10.53;;;10.50;99.90;;;;;;6182957;23;20100;-72
2022/10/10 08:47:04;;;;;;;15.90;10.77;;;10.50;99.90;;;;;;6180509;23;20072;-72
2022/10/10 08:49:36;;;;;;;16.93;11.10;;;10.60;99.90;;;;;;6142716;23;20009;-72
2022/10/10 08:52:26;;;;;;;15.15;9.70;;;10.70;99.90;;;;;;6182716;23;20001;-72
2022/10/10 08:54:53;;;;;;;11.07;9.47;;;10.80;99.90;;;;;;6182742;23;20004;-72
2022/10/10 08:57:29;;;;;;;14.17;10.00;;;10.90;99.90;;;;;;6181595;23;20009;-72
2022/10/10 09:00:03;;;;;;;20.80;13.07;;;11.00;99.90;;;;;;6180963;23;20016;-72
2022/10/10 09:02:36;;;;;;;14.95;10.88;;;11.10;99.90;;;;;;6182844;23;20008;-72
2022/10/10 09:05:03;;;;;;;16.67;10.40;;;10.20;99.90;;;;;;6182288;23;20442;-71
2022/10/10 09:07:52;;;;;;;18.27;10.60;;;11.30;99.90;;;;;;6182106;23;20005;-72
2022/10/10 09:10:34;;;;;;;13.83;10.60;;;11.40;99.90;;;;;;6182235;23;19997;-72
2022/10/10 09:13:24;;;;;;;13.65;9.57;;;11.60;99.90;;;;;;6180318;23;20427;-72
2022/10/10 09:15:56;;;;;;;11.75;9.85;;;11.70;99.90;;;;;;6181653;23;20055;-72
2022/10/10 09:18:33;;;;;;;14.93;9.73;;;11.90;99.90;;;;;;6179403;23;20009;-72
2022/10/10 09:21:27;;;;;;;13.27;9.13;;;12.00;99.90;;;;;;6181638;23;20031;-72
2022/10/10 09:24:10;;;;;;;12.25;9.40;;;12.20;99.90;;;;;;6171110;23;20071;-71
2022/10/10 09:26:46;;;;;;;13.18;10.32;;;12.30;99.90;;;;;;6182698;23;20001;-72
2022/10/10 09:29:45;;;;;;;12.60;9.77;;;12.50;99.90;;;;;;6180542;23;20005;-72
2022/10/10 09:32:20;;;;;;;11.75;8.85;;;12.60;99.90;;;;;;6181752;23;20308;-72
2022/10/10 09:34:53;;;;;;;14.27;9.75;;;12.80;99.90;;;;;;6181230;23;20043;-72
2022/10/10 09:37:34;;;;;;;14.30;9.32;;;13.00;99.90;;;;;;6182307;23;20055;-72
2022/10/10 09:40:03;;;;;;;13.55;10.43;;;13.20;99.90;;;;;;6180361;23;20028;-72
2022/10/10 09:42:35;;;;;;;14.40;10.15;;;13.20;99.90;;;;;;6180833;23;20005;-72
2022/10/10 09:45:02;;;;;;;14.15;8.60;;;13.40;99.90;;;;;;6180460;23;20478;-72
2022/10/10 09:47:28;;;;;;;10.75;9.07;;;13.50;99.90;;;;;;6181589;23;20008;-73
2022/10/10 09:49:54;;;;;;;14.68;9.15;;;13.70;99.90;;;;;;6179286;23;20427;-72
2022/10/10 09:52:22;;;;;;;12.18;8.98;;;13.80;99.90;;;;;;6180295;23;20045;-72
2022/10/10 09:54:49;;;;;;;12.02;8.50;;;13.90;99.90;;;;;;6182179;23;20055;-72
2022/10/10 09:57:19;;;;;;;11.30;9.10;;;14.10;99.90;;;;;;6182143;23;20001;-74
2022/10/10 09:59:45;;;;;;;13.50;9.43;;;14.10;99.90;;;;;;6180486;23;20032;-75
2022/10/10 10:02:25;;;;;;;10.90;8.77;;;14.20;99.90;;;;;;6180132;23;20419;-73
2022/10/10 10:04:53;;;;;;;10.32;8.75;;;14.30;99.90;;;;;;6181064;23;20011;-74
2022/10/10 10:07:30;;;;;;;10.50;8.02;;;14.40;99.90;;;;;;6181865;23;20063;-74
2022/10/10 10:10:09;;;;;;;12.63;8.70;;;14.60;99.90;;;;;;6180343;23;20009;-74
2022/10/10 10:12:43;;;;;;;14.02;9.52;;;14.50;99.90;;;;;;6182274;23;20004;-74
2022/10/10 10:15:29;;;;;;;11.00;8.63;;;14.70;99.90;;;;;;6180657;23;20427;-74
2022/10/10 10:18:18;;;;;;;13.73;10.00;;;14.80;99.90;;;;;;6180634;23;20033;-73
2022/10/10 10:20:46;;;;;;;15.60;8.35;;;14.90;99.90;;;;;;6182058;23;20438;-74
2022/10/10 10:23:33;;;;;;;11.60;8.82;;;14.90;99.90;;;;;;6180886;23;20016;-74
2022/10/10 10:26:05;;;;;;;11.70;8.68;;;15.10;99.90;;;;;;6179723;23;20334;-73
2022/10/10 10:28:38;;;;;;;12.35;8.27;;;14.80;99.90;;;;;;6180595;23;20001;-73
2022/10/10 10:31:04;;;;;;;10.15;8.07;;;15.20;99.90;;;;;;6181656;23;20088;-76
2022/10/10 10:33:39;;;;;;;14.40;8.70;;;15.10;99.90;;;;;;6179935;23;20504;-73
2022/10/10 10:36:22;;;;;;;12.38;7.75;;;15.20;99.90;;;;;;6179020;23;20013;-73
2022/10/10 10:38:59;;;;;;;15.18;8.45;;;15.30;99.90;;;;;;6180345;23;20005;-73
2022/10/10 10:41:42;;;;;;;10.13;8.23;;;15.20;99.90;;;;;;6181504;23;20012;-73
2022/10/10 10:44:40;;;;;;;12.40;8.35;;;15.20;99.90;;;;;;6179801;23;20008;-74
2022/10/10 10:47:27;;;;;;;12.88;7.97;;;15.30;99.90;;;;;;6179660;23;20009;-73
2022/10/10 10:50:10;;;;;;;10.63;7.32;;;15.30;99.90;;;;;;6178668;23;20135;-73
2022/10/10 10:52:54;;;;;;;10.35;7.43;;;15.40;99.90;;;;;;6182073;23;20080;-74
2022/10/10 10:55:42;;;;;;;10.10;7.70;;;15.40;99.90;;;;;;6181227;23;20008;-73
2022/10/10 10:58:38;;;;;;;11.30;7.88;;;15.60;99.90;;;;;;6179418;23;20336;-73
2022/10/10 11:01:09;;;;;;;11.30;7.32;;;15.50;99.90;;;;;;6181049;23;20052;-73
2022/10/10 11:04:05;;;;;;;11.70;7.55;;;15.60;99.90;;;;;;6182010;23;20009;-72
2022/10/10 11:06:50;;;;;;;9.45;7.90;;;15.70;99.90;;;;;;6181568;23;19997;-73
2022/10/10 11:09:34;;;;;;;10.07;6.40;;;15.70;99.90;;;;;;6179128;23;20382;-73
2022/10/10 11:12:32;;;;;;;10.48;7.35;;;16.30;99.90;;;;;;6181587;23;20001;-72
2022/10/10 11:15:12;;;;;;;16.98;8.45;;;15.80;99.90;;;;;;6179919;23;20129;-72
2022/10/10 11:17:46;;;;;;;17.25;7.72;;;15.80;99.90;;;;;;6181345;23;20037;-74
2022/10/10 11:20:34;;;;;;;9.20;6.97;;;15.90;99.90;;;;;;6177637;23;20015;-73
2022/10/10 11:23:05;;;;;;;12.00;6.97;;;16.00;99.90;;;;;;6183103;23;19997;-73
2022/10/10 11:26:09;;;;;;;8.38;7.28;;;15.90;99.90;;;;;;6183493;23;20053;-74
2022/10/10 11:28:51;;;;;;;12.52;7.10;;;15.90;99.90;;;;;;6061700;23;20132;-73
2022/10/10 11:31:31;;;;;;;10.38;7.28;;;16.00;99.90;;;;;;6061773;23;20416;-74
2022/10/10 11:34:02;;;;;;;9.60;7.47;;;16.20;99.90;;;;;;6060892;23;20018;-73
2022/10/10 11:36:33;;;;;;;8.93;6.85;;;16.20;99.90;;;;;;6063061;23;20126;-74
2022/10/10 11:39:03;;;;;;;7.35;6.45;;;16.30;99.90;;;;;;6061693;23;20454;-74
2022/10/10 11:41:44;;;;;;;10.68;7.35;;;16.50;99.90;;;;;;6062655;23;20421;-73
2022/10/10 11:44:15;;;;;;;21.27;9.20;;;16.60;99.90;;;;;;6063052;23;20011;-74
2022/10/10 11:46:58;;;;;;;11.65;6.15;;;16.70;99.90;;;;;;6062730;23;20520;-73
2022/10/10 11:50:01;;;;;;;12.02;7.85;;;16.80;99.90;;;;;;6062176;23;20015;-73
2022/10/10 11:52:40;;;;;;;11.82;6.95;;;16.90;99.90;;;;;;6062480;23;20011;-73
2022/10/10 11:55:43;;;;;;;10.45;7.00;;;16.90;99.90;;;;;;6063461;23;20018;-74
2022/10/10 11:58:09;;;;;;;10.52;7.65;;;17.00;99.90;;;;;;6056805;23;20011;-73
2022/10/10 12:00:52;;;;;;;10.35;7.35;;;17.00;99.90;;;;;;6063273;23;20007;-73
2022/10/10 12:03:17;;;;;;;11.57;6.68;;;17.10;99.90;;;;;;6082952;23;20284;-73
2022/10/10 12:05:51;;;;;;;13.07;6.90;;;17.20;99.90;;;;;;6182257;23;20001;-73
2022/10/10 12:08:22;;;;;;;10.57;7.75;;;17.30;99.90;;;;;;6182211;23;20386;-73
2022/10/10 12:11:03;;;;;;;12.07;7.07;;;17.40;99.90;;;;;;6180937;23;20451;-73
2022/10/10 12:13:35;;;;;;;11.15;6.65;;;17.30;99.90;;;;;;6180987;23;20001;-72
2022/10/10 12:16:10;;;;;;;11.05;6.85;;;17.30;99.90;;;;;;6181168;23;20008;-72
2022/10/10 12:18:59;;;;;;;8.52;6.70;;;17.30;99.90;;;;;;6181571;23;20001;-72
2022/10/10 12:21:27;;;;;;;10.52;6.30;;;17.20;99.90;;;;;;6182944;23;20088;-72
2022/10/10 12:24:12;;;;;;;7.30;5.35;;;17.30;99.90;;;;;;6182806;23;20331;-72
2022/10/10 12:26:53;;;;;;;7.53;5.93;;;17.40;99.90;;;;;;6180206;23;20001;-72
2022/10/10 12:29:39;;;;;;;12.00;6.75;;;17.60;99.90;;;;;;6181482;23;20005;-72
2022/10/10 12:32:14;;;;;;;10.57;6.60;;;17.60;99.90;;;;;;6183169;23;20009;-72
2022/10/10 12:34:55;;;;;;;9.55;6.80;;;17.70;99.90;;;;;;6182226;23;20342;-72
2022/10/10 12:37:29;;;;;;;13.75;7.68;;;17.50;99.90;;;;;;6181231;23;20013;-72
2022/10/10 12:40:07;;;;;;;10.68;5.97;;;17.40;99.90;;;;;;6181024;23;20152;-72
2022/10/10 12:42:58;;;;;;;15.52;6.60;;;17.40;99.90;;;;;;6181649;23;20009;-72
2022/10/10 12:45:52;;;;;;;12.68;6.28;;;17.50;99.90;;;;;;6182456;23;20465;-73
2022/10/10 12:48:18;;;;;;;;;;;17.20;99.90;;;;;;6127330;23;20028;-72
2022/10/10 12:50:56;;;;;;;10.02;6.07;;;16.90;99.90;;;;;;6183326;23;19904;-74
2022/10/10 12:53:23;;;;;;;12.75;6.70;;;17.00;99.90;;;;;;6182615;23;20007;-73
2022/10/10 12:55:53;;;;;;;14.30;7.13;;;17.00;99.90;;;;;;6182492;23;19996;-73
2022/10/10 12:58:22;;;;;;;12.32;6.85;;;16.90;99.90;;;;;;6180898;23;20088;-73
2022/10/10 13:00:47;;;;;;;13.85;7.55;;;17.10;99.90;;;;;;6182223;23;20009;-72
2022/10/10 13:03:44;;;;;;;13.43;7.05;;;16.60;99.90;;;;;;6181940;23;20005;-71
2022/10/10 13:06:32;;;;;;;15.02;7.53;;;16.60;99.90;;;;;;6180163;23;20013;-72